Time;durP1;ratioP1;P1;durP2;ratioP2;P2;SDS_P1;SDS_P2;PMS_P1;PMS_P2;Temp;Humidity;BMP_temperature;BMP_pressure;BME280_temperature;BME280_humidity;BME280_pressure;Samples;Min_cycle;Max_cycle;Signal;HPM_P1;HPM_P2
2023/09/19 00:00:46;;;;;;;28.27;3.83;;;12.40;99.90;;;;;;5091279;28;20039;-78
2023/09/19 00:03:12;;;;;;;21.60;3.50;;;12.40;99.90;;;;;;5091326;28;20035;-77
2023/09/19 00:05:39;;;;;;;16.90;3.60;;;12.40;99.90;;;;;;5091314;28;20024;-78
2023/09/19 00:08:05;;;;;;;26.00;3.85;;;12.50;99.90;;;;;;5091336;28;20040;-77
2023/09/19 00:10:34;;;;;;;18.00;3.50;;;12.40;99.90;;;;;;5092147;28;20085;-77
2023/09/19 00:13:05;;;;;;;17.63;3.78;;;12.40;99.90;;;;;;5091145;28;20047;-78
2023/09/19 00:15:36;;;;;;;17.10;3.72;;;12.40;99.90;;;;;;5092207;28;20454;-77
2023/09/19 00:18:01;;;;;;;16.55;3.70;;;12.40;99.90;;;;;;5091312;28;20039;-77
2023/09/19 00:20:29;;;;;;;16.70;3.83;;;12.40;99.90;;;;;;5091227;28;20032;-77
2023/09/19 00:22:55;;;;;;;21.75;3.40;;;12.40;99.90;;;;;;5072294;28;20353;-77
2023/09/19 00:25:21;;;;;;;21.42;3.92;;;12.40;99.90;;;;;;5090545;28;20043;-76
2023/09/19 00:27:51;;;;;;;19.75;3.85;;;12.30;99.90;;;;;;5089348;28;20526;-76
2023/09/19 00:30:20;;;;;;;11.77;2.95;;;12.30;99.90;;;;;;5089960;28;20463;-76
2023/09/19 00:32:47;;;;;;;11.20;2.85;;;12.30;99.90;;;;;;5089757;28;20205;-76
2023/09/19 00:35:17;;;;;;;15.20;2.92;;;12.30;99.90;;;;;;5090378;28;20020;-75
2023/09/19 00:37:43;;;;;;;16.50;3.33;;;12.30;99.90;;;;;;5089303;28;20381;-76
2023/09/19 00:40:15;;;;;;;18.70;3.47;;;12.30;99.90;;;;;;5089769;28;20114;-76
2023/09/19 00:42:42;;;;;;;16.50;3.40;;;12.30;99.90;;;;;;5089808;28;20028;-78
2023/09/19 00:45:12;;;;;;;15.98;3.13;;;12.20;99.90;;;;;;5089916;28;20165;-76
2023/09/19 00:47:44;;;;;;;12.40;3.15;;;12.20;99.90;;;;;;5090676;28;20117;-82
2023/09/19 00:50:10;;;;;;;15.52;3.10;;;12.20;99.90;;;;;;5089019;28;20090;-84
2023/09/19 00:52:42;;;;;;;18.02;3.72;;;12.20;99.90;;;;;;5106761;28;20105;-84
2023/09/19 00:55:09;;;;;;;18.25;3.47;;;12.20;99.90;;;;;;5107820;28;20031;-87
2023/09/19 00:57:38;;;;;;;23.67;3.55;;;12.20;99.90;;;;;;5073117;28;20073;-80
2023/09/19 01:00:06;;;;;;;15.43;3.22;;;12.20;99.90;;;;;;5090335;28;20059;-79
2023/09/19 01:02:32;;;;;;;19.73;3.42;;;12.10;99.90;;;;;;5090340;28;20038;-77
2023/09/19 01:04:59;;;;;;;25.15;4.18;;;12.10;99.90;;;;;;5089701;28;20114;-79
2023/09/19 01:07:26;;;;;;;16.60;4.03;;;12.10;99.90;;;;;;5090244;28;20020;-83
2023/09/19 01:09:53;;;;;;;13.93;2.95;;;12.10;99.90;;;;;;5089871;28;20036;-80
2023/09/19 01:12:33;;;;;;;14.07;3.22;;;12.10;99.90;;;;;;5090477;28;20477;-80
2023/09/19 01:15:12;;;;;;;14.40;3.63;;;12.10;99.90;;;;;;5071642;28;20020;-79
2023/09/19 01:18:07;;;;;;;11.95;2.75;;;12.10;99.90;;;;;;5090330;28;20074;-78
2023/09/19 01:20:56;;;;;;;13.05;2.88;;;12.10;99.90;;;;;;5052747;28;20040;-77
2023/09/19 01:24:00;;;;;;;16.60;3.00;;;12.10;99.90;;;;;;5089095;28;20058;-76
2023/09/19 01:26:53;;;;;;;11.48;2.80;;;12.20;99.90;;;;;;5089537;28;20028;-76
2023/09/19 01:29:46;;;;;;;7.93;1.95;;;12.20;99.90;;;;;;5089503;28;20035;-76
2023/09/19 01:32:16;;;;;;;10.60;2.43;;;12.20;99.90;;;;;;5090099;28;20032;-77
2023/09/19 01:34:49;;;;;;;8.90;2.17;;;12.10;99.90;;;;;;5089846;28;20599;-83
2023/09/19 01:37:19;;;;;;;7.20;1.95;;;12.20;99.90;;;;;;5106097;28;20024;-81
2023/09/19 01:39:48;;;;;;;10.30;2.40;;;12.20;99.90;;;;;;5090927;28;20133;-80
2023/09/19 01:42:26;;;;;;;12.02;2.28;;;12.20;99.90;;;;;;5093960;28;20101;-79
2023/09/19 01:45:11;;;;;;;7.80;2.17;;;12.20;99.90;;;;;;5093157;28;20089;-78
2023/09/19 01:48:00;;;;;;;8.40;2.15;;;12.10;99.90;;;;;;5093839;28;20024;-77
2023/09/19 01:50:41;;;;;;;9.20;2.42;;;12.20;99.90;;;;;;5093125;28;20048;-77
2023/09/19 01:53:15;;;;;;;11.15;2.63;;;12.20;99.90;;;;;;5092809;28;20081;-77
2023/09/19 01:55:51;;;;;;;5.72;1.80;;;12.20;99.90;;;;;;5075012;28;20039;-78
2023/09/19 01:58:29;;;;;;;9.07;2.28;;;12.20;99.90;;;;;;5093599;28;20020;-78
2023/09/19 02:00:58;;;;;;;10.07;2.33;;;12.30;99.90;;;;;;5092335;28;20024;-77
2023/09/19 02:03:24;;;;;;;8.32;2.40;;;12.30;99.90;;;;;;5093138;28;20099;-77
2023/09/19 02:05:53;;;;;;;9.20;2.50;;;12.30;99.90;;;;;;5092163;28;20028;-76
2023/09/19 02:08:23;;;;;;;9.45;2.40;;;12.30;99.90;;;;;;5092688;28;20055;-76
2023/09/19 02:10:49;;;;;;;7.35;2.25;;;12.30;99.90;;;;;;5092205;28;20025;-76
2023/09/19 02:13:19;;;;;;;10.38;2.97;;;12.30;99.90;;;;;;5092855;28;20053;-76
2023/09/19 02:15:46;;;;;;;8.50;2.35;;;12.40;99.90;;;;;;5074338;28;20063;-79
2023/09/19 02:18:12;;;;;;;7.45;2.58;;;12.40;99.90;;;;;;5092658;28;20036;-75
2023/09/19 02:20:41;;;;;;;11.95;2.78;;;12.50;99.90;;;;;;5092708;28;20027;-76
2023/09/19 02:23:08;;;;;;;10.70;2.78;;;12.50;99.90;;;;;;5107451;28;20024;-75
2023/09/19 02:25:35;;;;;;;13.30;2.47;;;12.50;99.90;;;;;;5092537;28;20372;-78
2023/09/19 02:28:02;;;;;;;11.32;2.88;;;12.60;99.90;;;;;;5091894;28;20028;-76
2023/09/19 02:30:29;;;;;;;12.25;2.90;;;12.50;99.90;;;;;;5092362;28;20423;-76
2023/09/19 02:32:55;;;;;;;8.63;2.85;;;12.60;99.90;;;;;;5073631;28;20085;-76
2023/09/19 02:35:21;;;;;;;16.15;3.88;;;12.60;99.90;;;;;;5092210;28;20380;-77
2023/09/19 02:37:47;;;;;;;12.30;3.30;;;12.60;99.90;;;;;;5092231;28;20110;-80
2023/09/19 02:40:18;;;;;;;11.57;3.58;;;12.60;99.90;;;;;;5092127;28;20099;-78
2023/09/19 02:42:49;;;;;;;9.88;3.05;;;12.60;99.90;;;;;;5091965;28;20370;-77
2023/09/19 02:45:18;;;;;;;14.07;3.60;;;12.60;99.90;;;;;;5092272;28;20430;-76
2023/09/19 02:47:45;;;;;;;10.90;3.53;;;12.60;99.90;;;;;;5092092;28;20435;-76
2023/09/19 02:50:12;;;;;;;12.70;3.20;;;12.70;99.90;;;;;;5091113;28;20098;-77
2023/09/19 02:52:38;;;;;;;18.30;4.38;;;12.70;99.90;;;;;;5091214;28;20035;-77
2023/09/19 02:55:05;;;;;;;9.43;3.40;;;12.70;99.90;;;;;;5106875;28;20024;-77
2023/09/19 02:57:32;;;;;;;14.88;3.60;;;12.70;99.90;;;;;;5107654;28;20362;-76
2023/09/19 03:00:00;;;;;;;10.32;3.22;;;12.70;99.90;;;;;;5091173;28;20427;-76
2023/09/19 03:02:27;;;;;;;10.25;2.65;;;12.80;99.90;;;;;;5091850;28;20077;-77
2023/09/19 03:04:53;;;;;;;13.05;2.75;;;12.80;99.90;;;;;;5091326;28;20034;-76
2023/09/19 03:07:19;;;;;;;8.18;2.92;;;12.80;99.90;;;;;;5091408;28;20125;-77
2023/09/19 03:09:45;;;;;;;9.48;2.83;;;12.80;99.90;;;;;;5091320;28;20034;-77
2023/09/19 03:12:11;;;;;;;12.60;2.90;;;12.80;99.90;;;;;;5106624;28;20432;-78
2023/09/19 03:14:37;;;;;;;6.30;2.92;;;12.80;99.90;;;;;;5091806;28;20039;-77
2023/09/19 03:17:05;;;;;;;10.13;2.85;;;12.80;99.90;;;;;;5091206;28;20024;-77
2023/09/19 03:19:33;;;;;;;11.18;2.72;;;12.80;99.90;;;;;;5091486;28;20405;-77
2023/09/19 03:21:59;;;;;;;6.53;2.58;;;12.90;99.90;;;;;;5090808;28;20115;-78
2023/09/19 03:24:25;;;;;;;10.60;2.65;;;12.80;99.90;;;;;;5091015;28;20054;-78
2023/09/19 03:26:52;;;;;;;8.10;2.65;;;12.90;99.90;;;;;;5090871;28;20032;-80
2023/09/19 03:29:18;;;;;;;6.45;2.00;;;12.90;99.90;;;;;;5091609;28;20066;-78
2023/09/19 03:31:44;;;;;;;7.05;1.95;;;12.90;99.90;;;;;;5091245;28;20146;-77
2023/09/19 03:34:09;;;;;;;4.88;1.85;;;12.90;99.90;;;;;;5090867;28;20111;-78
2023/09/19 03:36:35;;;;;;;4.50;2.03;;;12.90;99.90;;;;;;5091070;28;20123;-76
2023/09/19 03:39:04;;;;;;;7.80;1.90;;;13.00;99.90;;;;;;5090556;28;20024;-76
2023/09/19 03:41:31;;;;;;;4.95;2.05;;;12.90;99.90;;;;;;5091058;28;20353;-77
2023/09/19 03:43:57;;;;;;;5.35;2.10;;;12.90;99.90;;;;;;5090589;28;20073;-78
2023/09/19 03:46:22;;;;;;;8.88;2.22;;;13.00;99.90;;;;;;5091216;28;20024;-77
2023/09/19 03:48:48;;;;;;;5.15;2.00;;;13.00;99.90;;;;;;5072363;28;20135;-77
2023/09/19 03:51:14;;;;;;;7.80;2.15;;;13.00;99.90;;;;;;5090479;28;20020;-77
2023/09/19 03:53:41;;;;;;;3.97;1.75;;;13.10;99.90;;;;;;5090390;28;20465;-77
2023/09/19 03:56:08;;;;;;;8.55;2.10;;;13.10;99.90;;;;;;5072027;28;20035;-77
2023/09/19 03:58:38;;;;;;;6.70;2.22;;;13.20;99.90;;;;;;5091094;28;20028;-77
2023/09/19 04:01:03;;;;;;;7.30;1.98;;;13.20;99.90;;;;;;5090197;28;20038;-77
2023/09/19 04:03:35;;;;;;;5.32;2.42;;;13.30;99.90;;;;;;5090791;28;20380;-77
2023/09/19 04:06:02;;;;;;;7.10;2.17;;;13.40;99.90;;;;;;5090241;28;20016;-77
2023/09/19 04:08:28;;;;;;;7.53;2.05;;;13.50;99.90;;;;;;5090849;28;20028;-77
2023/09/19 04:10:53;;;;;;;6.20;2.30;;;13.60;99.90;;;;;;5090100;28;20034;-78
2023/09/19 04:13:19;;;;;;;7.97;2.00;;;13.60;99.90;;;;;;5090574;28;20440;-75
2023/09/19 04:15:46;;;;;;;6.05;2.58;;;13.60;99.90;;;;;;5090631;28;20024;-75
2023/09/19 04:18:12;;;;;;;8.82;2.30;;;13.70;99.90;;;;;;5089485;28;20051;-77
2023/09/19 04:20:38;;;;;;;4.90;1.80;;;13.70;99.90;;;;;;5090388;28;20162;-76
2023/09/19 04:23:05;;;;;;;6.15;1.92;;;13.80;99.90;;;;;;5089578;28;20043;-77
2023/09/19 04:25:31;;;;;;;6.43;1.83;;;13.80;99.90;;;;;;5090148;28;20035;-76
2023/09/19 04:27:57;;;;;;;6.97;2.30;;;13.90;99.90;;;;;;5071819;28;20496;-76
2023/09/19 04:30:23;;;;;;;5.82;1.98;;;13.90;99.90;;;;;;5090063;28;20493;-77
2023/09/19 04:32:50;;;;;;;4.40;1.63;;;14.00;99.90;;;;;;5090274;28;20042;-77
2023/09/19 04:35:16;;;;;;;4.85;1.77;;;13.90;99.90;;;;;;5089949;28;20171;-76
2023/09/19 04:37:42;;;;;;;4.43;1.85;;;14.00;99.90;;;;;;5090289;28;20140;-76
2023/09/19 04:40:17;;;;;;;4.32;1.55;;;14.00;99.90;;;;;;5071719;28;20036;-77
2023/09/19 04:42:43;;;;;;;2.25;1.45;;;14.10;99.90;;;;;;5090230;28;20035;-77
2023/09/19 04:45:10;;;;;;;3.25;1.65;;;14.10;99.90;;;;;;5089776;28;20081;-77
2023/09/19 04:47:38;;;;;;;4.53;1.30;;;14.20;99.90;;;;;;5071909;28;20369;-77
2023/09/19 04:50:06;;;;;;;3.42;1.70;;;14.30;99.90;;;;;;5088959;28;20040;-78
2023/09/19 04:52:32;;;;;;;3.97;1.40;;;14.30;99.90;;;;;;5090036;28;20134;-76
2023/09/19 04:54:58;;;;;;;3.40;1.27;;;14.30;99.90;;;;;;5090683;28;20020;-77
2023/09/19 04:57:25;;;;;;;2.28;1.00;;;14.40;99.90;;;;;;5094238;28;20038;-77
2023/09/19 04:59:51;;;;;;;2.80;1.00;;;14.50;99.90;;;;;;5093762;28;20177;-76
2023/09/19 05:02:17;;;;;;;3.63;1.17;;;14.50;99.90;;;;;;5092810;28;20117;-76
2023/09/19 05:04:43;;;;;;;1.33;1.10;;;14.50;99.90;;;;;;5092105;28;20111;-76
2023/09/19 05:07:10;;;;;;;3.35;1.00;;;14.50;99.90;;;;;;5090595;28;20120;-76
2023/09/19 05:09:37;;;;;;;3.25;1.10;;;14.60;99.90;;;;;;5091788;28;20059;-77
2023/09/19 05:12:03;;;;;;;2.13;1.08;;;14.60;99.90;;;;;;5089267;28;20043;-78
2023/09/19 05:14:29;;;;;;;5.78;1.33;;;14.60;99.90;;;;;;5090996;28;20035;-75
2023/09/19 05:16:55;;;;;;;3.20;1.08;;;14.60;99.90;;;;;;5093664;28;20024;-76
2023/09/19 05:19:21;;;;;;;4.97;1.00;;;14.70;99.90;;;;;;5093227;28;20050;-77
2023/09/19 05:21:47;;;;;;;2.65;0.80;;;14.70;99.90;;;;;;5093732;28;20028;-77
2023/09/19 05:24:14;;;;;;;3.55;0.90;;;14.70;99.90;;;;;;5093454;28;20024;-77
2023/09/19 05:26:40;;;;;;;2.85;0.90;;;14.80;99.90;;;;;;5093692;28;20138;-77
2023/09/19 05:29:07;;;;;;;1.65;0.88;;;14.90;99.90;;;;;;5074574;28;20548;-77
2023/09/19 05:31:36;;;;;;;1.83;0.75;;;14.90;99.90;;;;;;5075752;28;20039;-77
2023/09/19 05:34:02;;;;;;;5.65;0.98;;;14.90;99.90;;;;;;5093047;28;20116;-77
2023/09/19 05:36:29;;;;;;;3.20;0.70;;;14.90;99.90;;;;;;5093281;28;20056;-77
2023/09/19 05:38:55;;;;;;;4.22;0.90;;;15.00;99.90;;;;;;5075189;28;20436;-77
2023/09/19 05:41:21;;;;;;;2.38;0.90;;;15.10;99.90;;;;;;5092822;28;20028;-76
2023/09/19 05:43:50;;;;;;;3.58;0.77;;;15.10;99.90;;;;;;5093369;28;20039;-76
2023/09/19 05:46:16;;;;;;;3.20;1.08;;;15.10;99.90;;;;;;5092905;28;20027;-77
2023/09/19 05:48:43;;;;;;;0.95;0.63;;;15.20;99.90;;;;;;5092828;28;20381;-77
2023/09/19 05:51:09;;;;;;;3.13;0.70;;;15.10;99.90;;;;;;5093069;28;20051;-76
2023/09/19 05:53:35;;;;;;;2.28;0.47;;;15.20;99.90;;;;;;5075490;28;20028;-77
2023/09/19 05:56:01;;;;;;;2.13;0.35;;;15.20;99.90;;;;;;5074211;28;20330;-78
2023/09/19 05:58:27;;;;;;;1.30;0.40;;;15.30;99.90;;;;;;5095832;28;20035;-75
2023/09/19 06:00:52;;;;;;;1.70;0.40;;;15.30;99.90;;;;;;5094484;28;20457;-76
2023/09/19 06:03:18;;;;;;;1.23;0.60;;;15.30;99.90;;;;;;5092484;28;20038;-76
2023/09/19 06:05:46;;;;;;;2.65;0.47;;;15.40;99.90;;;;;;5093297;28;20040;-77
2023/09/19 06:08:11;;;;;;;2.75;0.45;;;15.30;99.90;;;;;;5092375;28;20064;-77
2023/09/19 06:10:37;;;;;;;0.68;0.22;;;15.40;99.90;;;;;;5092765;28;20100;-76
2023/09/19 06:13:05;;;;;;;1.63;0.50;;;15.40;99.90;;;;;;5092179;28;20111;-77
2023/09/19 06:15:33;;;;;;;1.02;0.40;;;15.40;99.90;;;;;;5092688;28;20452;-77
2023/09/19 06:18:04;;;;;;;0.32;0.32;;;15.40;99.90;;;;;;5093001;28;20024;-77
2023/09/19 06:20:30;;;;;;;1.60;0.85;;;15.40;99.90;;;;;;5092497;28;20437;-76
2023/09/19 06:22:56;;;;;;;1.55;0.35;;;15.50;99.90;;;;;;5092349;28;20040;-77
2023/09/19 06:25:22;;;;;;;1.13;0.30;;;15.50;99.90;;;;;;5091430;28;20641;-76
2023/09/19 06:27:52;;;;;;;0.55;0.40;;;15.50;99.90;;;;;;5091281;28;20533;-76
2023/09/19 06:30:18;;;;;;;1.38;0.30;;;15.50;99.90;;;;;;5091529;28;20044;-76
2023/09/19 06:32:44;;;;;;;0.93;0.20;;;15.50;99.90;;;;;;5092305;28;20047;-76
2023/09/19 06:35:12;;;;;;;0.75;0.30;;;15.50;99.90;;;;;;5091271;28;20028;-76
2023/09/19 06:37:38;;;;;;;0.13;0.13;;;15.50;99.90;;;;;;5092157;28;20070;-76
2023/09/19 06:40:14;;;;;;;0.65;0.20;;;15.50;99.90;;;;;;5091309;28;20487;-77
2023/09/19 06:42:45;;;;;;;0.85;0.30;;;15.50;99.90;;;;;;5092009;28;20055;-77
2023/09/19 06:45:13;;;;;;;0.85;0.20;;;15.60;99.90;;;;;;5091397;28;20128;-76
2023/09/19 06:47:39;;;;;;;0.95;0.10;;;15.60;99.90;;;;;;5092042;28;20076;-77
2023/09/19 06:50:08;;;;;;;1.30;0.40;;;15.60;99.90;;;;;;5072736;28;20124;-77
2023/09/19 06:52:35;;;;;;;2.20;0.30;;;15.70;99.90;;;;;;5091590;28;20372;-77
2023/09/19 06:55:03;;;;;;;0.22;0.15;;;15.70;99.90;;;;;;5091876;28;20024;-77
2023/09/19 06:57:30;;;;;;;0.70;0.40;;;15.70;99.90;;;;;;5073442;28;20028;-77
2023/09/19 06:59:56;;;;;;;0.75;0.40;;;15.80;99.90;;;;;;5073884;28;20047;-78
2023/09/19 07:02:21;;;;;;;0.47;0.28;;;15.80;99.90;;;;;;5091213;28;20123;-77
2023/09/19 07:04:48;;;;;;;0.10;0.10;;;15.80;99.90;;;;;;5091827;28;20436;-77
2023/09/19 07:07:13;;;;;;;0.32;0.20;;;15.70;99.90;;;;;;5090964;28;20443;-76
2023/09/19 07:09:39;;;;;;;0.30;0.10;;;15.80;99.90;;;;;;5090702;28;20032;-76
2023/09/19 07:12:05;;;;;;;1.40;0.20;;;15.80;99.90;;;;;;5090890;28;20035;-77
2023/09/19 07:14:32;;;;;;;1.30;0.22;;;15.80;99.90;;;;;;5090674;28;20446;-75
2023/09/19 07:16:59;;;;;;;0.25;0.20;;;15.80;99.90;;;;;;5091286;28;20089;-76
2023/09/19 07:19:28;;;;;;;1.90;0.30;;;15.90;99.90;;;;;;5090256;28;20524;-76
2023/09/19 07:21:54;;;;;;;1.38;0.50;;;15.80;99.90;;;;;;5091410;28;20032;-76
2023/09/19 07:24:22;;;;;;;2.08;1.98;;;16.00;99.90;;;;;;5090594;28;20080;-76
2023/09/19 07:26:48;;;;;;;1.70;1.60;;;15.90;99.90;;;;;;5090906;28;20024;-76
2023/09/19 07:29:14;;;;;;;0.63;0.50;;;16.00;99.90;;;;;;5089971;28;20492;-76
2023/09/19 07:31:39;;;;;;;0.38;0.30;;;16.10;99.90;;;;;;5091157;28;20071;-77
2023/09/19 07:34:06;;;;;;;2.20;0.65;;;16.00;99.90;;;;;;5090947;28;20103;-77
2023/09/19 07:36:34;;;;;;;0.30;0.13;;;16.00;99.90;;;;;;5090941;28;20024;-76
2023/09/19 07:39:00;;;;;;;1.48;0.40;;;16.10;99.90;;;;;;5090415;28;20403;-77
2023/09/19 07:41:25;;;;;;;0.32;0.20;;;16.20;99.90;;;;;;5090221;28;20093;-76
2023/09/19 07:43:52;;;;;;;1.77;0.47;;;16.20;99.90;;;;;;5090671;28;20124;-76
2023/09/19 07:46:18;;;;;;;1.13;0.40;;;16.30;99.90;;;;;;5072185;28;20453;-76
2023/09/19 07:48:48;;;;;;;1.90;0.30;;;16.30;99.90;;;;;;5090731;28;20101;-76
2023/09/19 07:51:15;;;;;;;0.82;0.20;;;16.30;99.90;;;;;;5090213;28;20458;-77
2023/09/19 07:53:42;;;;;;;0.52;0.30;;;16.30;99.90;;;;;;5091168;28;20043;-77
2023/09/19 07:56:09;;;;;;;0.68;0.30;;;16.30;99.90;;;;;;5090528;28;20024;-78
2023/09/19 07:58:38;;;;;;;1.20;0.38;;;16.40;99.90;;;;;;5072790;28;20453;-76
2023/09/19 08:01:09;;;;;;;1.08;0.50;;;16.40;99.90;;;;;;5090425;28;20020;-75
2023/09/19 08:03:37;;;;;;;4.47;0.47;;;16.40;99.90;;;;;;5090476;28;20054;-76
2023/09/19 08:06:03;;;;;;;2.08;0.22;;;16.50;99.90;;;;;;5090327;28;20024;-76
2023/09/19 08:08:28;;;;;;;0.38;0.28;;;16.40;99.90;;;;;;5089923;28;20089;-77
2023/09/19 08:10:56;;;;;;;1.77;0.25;;;16.50;99.90;;;;;;5090135;28;20024;-78
2023/09/19 08:13:25;;;;;;;3.00;0.30;;;16.60;99.90;;;;;;5089870;28;20031;-77
2023/09/19 08:15:53;;;;;;;1.05;0.40;;;16.70;99.90;;;;;;5089668;28;20437;-77
2023/09/19 08:18:19;;;;;;;1.65;0.10;;;16.80;99.90;;;;;;5089854;28;20032;-78
2023/09/19 08:20:54;;;;;;;1.15;0.47;;;16.90;99.90;;;;;;5071935;28;20059;-77
2023/09/19 08:23:20;;;;;;;1.00;0.25;;;16.90;99.90;;;;;;5089612;28;20092;-78
2023/09/19 08:25:48;;;;;;;0.32;0.30;;;17.00;99.90;;;;;;5090119;28;20075;-77
2023/09/19 08:28:18;;;;;;;0.52;0.20;;;17.10;99.90;;;;;;5090230;28;20032;-76
2023/09/19 08:30:47;;;;;;;1.10;0.40;;;17.20;99.90;;;;;;5089853;28;20033;-77
2023/09/19 08:33:15;;;;;;;0.25;0.10;;;17.30;99.90;;;;;;5089430;28;20031;-77
2023/09/19 08:35:42;;;;;;;3.60;0.40;;;17.30;99.90;;;;;;5090068;28;20553;-76
2023/09/19 08:38:08;;;;;;;1.45;0.50;;;17.40;99.90;;;;;;5072402;28;20331;-77
2023/09/19 08:40:39;;;;;;;0.40;0.28;;;17.50;99.90;;;;;;5090056;28;20453;-76
2023/09/19 08:43:06;;;;;;;0.60;0.30;;;17.50;99.90;;;;;;5090405;28;20028;-77
2023/09/19 08:45:33;;;;;;;0.85;0.43;;;17.70;99.90;;;;;;5088693;28;20035;-77
2023/09/19 08:48:20;;;;;;;1.55;0.30;;;17.70;99.90;;;;;;5090099;28;20043;-76
2023/09/19 08:51:03;;;;;;;2.70;0.65;;;17.80;99.90;;;;;;5092746;28;20130;-77
2023/09/19 08:53:46;;;;;;;1.05;0.15;;;17.90;99.90;;;;;;5092889;28;20028;-77
2023/09/19 08:56:13;;;;;;;;;;;18.00;99.90;;;;;;5093506;28;20386;-79
2023/09/19 08:58:54;;;;;;;0.52;0.20;;;18.10;99.90;;;;;;5094709;28;20008;-78
2023/09/19 09:01:24;;;;;;;1.42;0.20;;;18.10;99.90;;;;;;5093313;28;20440;-76
2023/09/19 09:03:52;;;;;;;2.10;0.40;;;18.00;99.90;;;;;;5094181;28;20130;-75
2023/09/19 09:06:23;;;;;;;0.28;0.25;;;18.00;99.90;;;;;;5093155;28;20035;-77
2023/09/19 09:08:51;;;;;;;1.88;0.28;;;18.00;99.90;;;;;;5075886;28;20214;-76
2023/09/19 09:11:17;;;;;;;0.57;0.10;;;17.90;99.90;;;;;;5093209;28;20040;-77
2023/09/19 09:13:44;;;;;;;2.05;0.20;;;17.80;99.90;;;;;;5093862;28;20023;-76
2023/09/19 09:16:10;;;;;;;0.00;0.00;;;17.70;99.90;;;;;;5075433;28;20161;-77
2023/09/19 09:18:37;;;;;;;0.43;0.30;;;17.60;99.90;;;;;;5093454;28;20378;-77
2023/09/19 09:21:04;;;;;;;1.27;0.20;;;17.70;99.90;;;;;;5093691;28;20032;-78
2023/09/19 09:23:32;;;;;;;0.20;0.13;;;17.70;99.90;;;;;;5093117;28;20422;-77
2023/09/19 09:26:02;;;;;;;0.20;0.20;;;17.60;99.90;;;;;;5094121;28;20354;-76
2023/09/19 09:28:30;;;;;;;0.32;0.10;;;17.60;99.90;;;;;;5093154;28;20089;-76
2023/09/19 09:30:58;;;;;;;2.00;0.40;;;17.50;99.90;;;;;;5093337;28;20024;-75
2023/09/19 09:33:24;;;;;;;1.85;0.43;;;17.50;99.90;;;;;;5093065;28;20059;-75
2023/09/19 09:35:52;;;;;;;0.77;0.20;;;17.50;99.90;;;;;;5093714;28;20028;-76
2023/09/19 09:38:25;;;;;;;0.20;0.20;;;17.50;99.90;;;;;;5092913;28;20020;-77
2023/09/19 09:40:54;;;;;;;5.97;0.93;;;17.50;99.90;;;;;;5093564;28;20032;-76
2023/09/19 09:43:49;;;;;;;1.88;0.30;;;17.60;99.90;;;;;;5074431;28;20355;-76
2023/09/19 09:49:39;;;;;;;0.25;0.20;;;17.70;99.90;;;;;;5093561;28;20127;-77
2023/09/19 09:51:48;;;;;;;0.20;0.20;;;17.70;99.90;;;;;;5074984;28;20064;-77
2023/09/19 09:54:21;;;;;;;0.03;0.03;;;17.80;99.90;;;;;;5093334;28;20056;-77
2023/09/19 09:57:13;;;;;;;0.13;0.13;;;17.80;99.90;;;;;;5093411;28;20366;-77
2023/09/19 09:59:50;;;;;;;0.57;0.10;;;18.00;99.90;;;;;;5074657;28;20028;-77
2023/09/19 10:02:29;;;;;;;0.57;0.10;;;18.10;99.90;;;;;;5092703;28;20028;-78
2023/09/19 10:05:14;;;;;;;0.38;0.20;;;18.00;99.90;;;;;;5093123;28;20028;-77
2023/09/19 10:07:45;;;;;;;1.00;0.10;;;18.00;99.90;;;;;;5092644;28;20016;-77
2023/09/19 10:10:23;;;;;;;0.90;0.30;;;18.00;99.90;;;;;;5093073;28;20036;-78
2023/09/19 10:12:56;;;;;;;1.20;0.17;;;18.10;99.90;;;;;;5093338;28;20558;-78
2023/09/19 10:15:26;;;;;;;0.57;0.10;;;18.00;99.90;;;;;;5092662;28;20024;-79
2023/09/19 10:17:56;;;;;;;1.45;0.20;;;18.00;99.90;;;;;;5074690;28;20040;-78
2023/09/19 10:20:24;;;;;;;0.10;0.10;;;18.00;99.90;;;;;;5092440;28;20484;-78
2023/09/19 10:22:57;;;;;;;0.03;0.03;;;18.10;99.90;;;;;;5092146;28;20024;-78
2023/09/19 10:25:33;;;;;;;1.48;0.13;;;18.00;99.90;;;;;;5092604;28;20086;-77
2023/09/19 10:28:06;;;;;;;2.45;0.40;;;18.10;99.90;;;;;;5092833;28;20410;-78
2023/09/19 10:30:36;;;;;;;0.28;0.15;;;18.10;99.90;;;;;;5092744;28;20040;-78
2023/09/19 10:33:05;;;;;;;0.30;0.13;;;18.10;99.90;;;;;;5075046;28;20115;-79
2023/09/19 10:35:32;;;;;;;0.30;0.20;;;18.10;99.90;;;;;;5092667;28;20020;-79
2023/09/19 10:38:02;;;;;;;0.22;0.10;;;18.20;99.90;;;;;;5093797;28;20020;-78
2023/09/19 10:40:31;;;;;;;0.60;0.38;;;18.30;99.90;;;;;;5092938;28;20024;-78
2023/09/19 10:43:07;;;;;;;1.17;0.17;;;18.30;99.90;;;;;;5092659;28;20063;-78
2023/09/19 10:45:34;;;;;;;0.10;0.10;;;18.40;99.90;;;;;;5092292;28;20162;-78
2023/09/19 10:48:05;;;;;;;0.38;0.10;;;18.40;99.90;;;;;;5092246;28;20085;-78
2023/09/19 10:50:41;;;;;;;0.20;0.10;;;18.40;99.90;;;;;;5089795;28;20055;-78
2023/09/19 10:53:10;;;;;;;0.52;0.30;;;18.40;99.90;;;;;;5091995;28;20016;-77
2023/09/19 10:55:37;;;;;;;0.10;0.10;;;18.40;99.90;;;;;;5090664;28;20070;-78
2023/09/19 10:58:13;;;;;;;0.10;0.10;;;18.40;99.90;;;;;;5092188;28;20043;-78
2023/09/19 11:01:12;;;;;;;0.20;0.20;;;18.40;99.90;;;;;;5091271;28;20036;-77
2023/09/19 11:03:43;;;;;;;0.40;0.28;;;18.30;99.90;;;;;;5090879;28;20039;-81
2023/09/19 11:06:18;;;;;;;0.88;0.43;;;18.30;99.90;;;;;;5091894;28;20035;-79
2023/09/19 11:09:15;;;;;;;0.38;0.10;;;18.30;99.90;;;;;;5090578;28;20028;-77
2023/09/19 11:11:50;;;;;;;0.50;0.40;;;18.20;99.90;;;;;;5090099;28;20024;-77
2023/09/19 11:14:25;;;;;;;1.33;0.28;;;18.20;99.90;;;;;;5090272;28;20034;-77
2023/09/19 11:17:15;;;;;;;1.55;0.38;;;18.20;99.90;;;;;;5090312;28;20036;-77
2023/09/19 11:22:58;;;;;;;1.20;0.20;;;18.30;99.90;;;;;;5090383;28;20038;-77
2023/09/19 11:25:30;;;;;;;0.95;0.10;;;18.30;99.90;;;;;;5090722;28;20085;-81
2023/09/19 11:28:21;;;;;;;0.95;0.20;;;18.40;99.90;;;;;;5091248;28;20086;-78
2023/09/19 11:30:54;;;;;;;1.05;0.20;;;18.30;99.90;;;;;;5090890;28;20150;-78
2023/09/19 11:33:33;;;;;;;1.55;0.30;;;18.30;99.90;;;;;;5090365;28;20032;-79
2023/09/19 11:36:09;;;;;;;1.38;0.20;;;18.50;99.90;;;;;;5091072;28;20115;-77
2023/09/19 11:38:45;;;;;;;0.20;0.20;;;18.50;99.90;;;;;;5071611;28;20128;-78
2023/09/19 11:41:26;;;;;;;0.93;0.30;;;18.50;99.90;;;;;;5091734;28;20024;-77
2023/09/19 11:43:54;;;;;;;1.13;0.30;;;18.60;99.90;;;;;;5093335;28;20111;-77
2023/09/19 11:46:21;;;;;;;2.05;0.60;;;18.60;99.90;;;;;;5091326;28;20385;-79
2023/09/19 11:48:51;;;;;;;0.50;0.28;;;18.70;99.90;;;;;;5091704;28;20122;-76
2023/09/19 11:51:26;;;;;;;0.90;0.22;;;18.80;99.90;;;;;;5092442;28;20054;-77
2023/09/19 11:53:57;;;;;;;0.63;0.28;;;18.90;99.90;;;;;;5091207;28;20074;-77
2023/09/19 11:56:31;;;;;;;1.90;0.32;;;18.90;99.90;;;;;;5091022;28;20036;-78
2023/09/19 11:58:57;;;;;;;0.68;0.28;;;19.00;99.90;;;;;;5091963;28;20409;-77
2023/09/19 12:01:29;;;;;;;1.77;0.30;;;19.10;99.90;;;;;;5091681;28;20107;-79
2023/09/19 12:03:57;;;;;;;0.53;0.20;;;19.10;99.90;;;;;;5092348;28;20090;-78
2023/09/19 12:06:24;;;;;;;1.15;0.40;;;19.10;99.90;;;;;;5091241;28;20032;-79
2023/09/19 12:08:50;;;;;;;1.92;0.32;;;19.10;99.90;;;;;;5092203;28;20110;-77
2023/09/19 12:11:17;;;;;;;1.17;0.20;;;19.10;99.90;;;;;;5091904;28;20035;-78
2023/09/19 12:13:48;;;;;;;0.73;0.40;;;19.20;99.90;;;;;;5091292;28;20476;-78
2023/09/19 12:16:22;;;;;;;1.17;0.35;;;19.30;99.90;;;;;;5091999;28;20113;-78
2023/09/19 12:18:50;;;;;;;1.05;0.40;;;19.20;99.90;;;;;;5091937;28;20377;-78
2023/09/19 12:21:36;;;;;;;0.80;0.40;;;19.30;99.90;;;;;;5091550;28;20397;-78
2023/09/19 12:24:16;;;;;;;0.20;0.20;;;19.40;99.90;;;;;;5091577;28;20028;-78
2023/09/19 12:26:43;;;;;;;2.38;0.50;;;19.50;99.90;;;;;;5090941;28;20487;-77
2023/09/19 12:29:22;;;;;;;0.68;0.30;;;19.40;99.90;;;;;;5091264;28;20024;-78
2023/09/19 12:31:57;;;;;;;0.93;0.40;;;19.40;99.90;;;;;;5073090;28;20024;-78
2023/09/19 12:34:34;;;;;;;1.65;0.30;;;19.20;99.90;;;;;;5091696;28;20020;-79
2023/09/19 12:37:11;;;;;;;1.45;0.35;;;19.10;99.90;;;;;;5073445;28;20430;-76
2023/09/19 12:39:44;;;;;;;1.95;0.30;;;18.90;99.90;;;;;;5090725;28;20028;-77
2023/09/19 12:42:13;;;;;;;1.17;0.40;;;18.80;99.90;;;;;;5073741;28;20024;-77
2023/09/19 12:44:45;;;;;;;0.50;0.28;;;18.70;99.90;;;;;;5090627;28;20028;-77
2023/09/19 12:47:23;;;;;;;1.20;0.38;;;18.70;99.90;;;;;;5091281;28;20028;-77
2023/09/19 12:50:13;;;;;;;0.98;0.57;;;18.60;99.90;;;;;;5090656;28;20054;-78
2023/09/19 12:53:00;;;;;;;1.13;0.57;;;18.60;99.90;;;;;;5090667;28;20115;-77
2023/09/19 12:55:28;;;;;;;1.55;0.50;;;18.70;99.90;;;;;;5090517;28;20035;-80
2023/09/19 12:58:05;;;;;;;1.55;0.50;;;18.80;99.90;;;;;;5091641;28;20020;-78
2023/09/19 13:00:38;;;;;;;1.02;0.55;;;18.80;99.90;;;;;;5090438;28;20024;-78
2023/09/19 13:03:34;;;;;;;1.67;0.50;;;18.80;99.90;;;;;;5091187;28;20028;-78
2023/09/19 13:06:04;;;;;;;1.02;0.50;;;18.90;99.90;;;;;;5091342;28;20028;-77